Time;durP1;ratioP1;P1;durP2;ratioP2;P2;SDS_P1;SDS_P2;PMS_P1;PMS_P2;Temp;Humidity;BMP_temperature;BMP_pressure;BME280_temperature;BME280_humidity;BME280_pressure;Samples;Min_cycle;Max_cycle;Signal;HPM_P1;HPM_P2
2021/03/15 00:01:22;;;;;;;3.97;3.67;;;1.00;99.90;;;;;;5152275;27;20422;-70
2021/03/15 00:03:52;;;;;;;5.10;4.50;;;1.00;99.90;;;;;;5155998;27;20422;-71
2021/03/15 00:06:18;;;;;;;4.73;4.30;;;0.90;99.90;;;;;;5156668;27;20445;-70
2021/03/15 00:08:45;;;;;;;7.63;5.50;;;0.80;99.90;;;;;;5155760;27;20445;-71
2021/03/15 00:11:12;;;;;;;6.37;5.17;;;0.80;99.90;;;;;;5156532;27;20831;-69
2021/03/15 00:13:38;;;;;;;10.60;6.00;;;0.80;99.90;;;;;;5156458;27;20426;-69
2021/03/15 00:16:06;;;;;;;7.17;6.07;;;0.80;99.90;;;;;;5156126;27;20454;-69
2021/03/15 00:18:33;;;;;;;5.83;5.00;;;0.80;99.90;;;;;;5155673;27;20973;-70
2021/03/15 00:21:00;;;;;;;8.03;5.80;;;0.80;99.90;;;;;;5156359;27;20426;-69
2021/03/15 00:23:30;;;;;;;6.00;5.30;;;0.80;99.90;;;;;;5156229;27;20447;-71
2021/03/15 00:25:56;;;;;;;9.73;6.07;;;0.80;99.90;;;;;;5156341;27;20783;-71
2021/03/15 00:28:23;;;;;;;6.30;5.50;;;0.80;99.90;;;;;;5155296;27;20441;-71
2021/03/15 00:30:50;;;;;;;8.00;5.60;;;0.80;99.90;;;;;;5156055;27;20974;-71
2021/03/15 00:33:16;;;;;;;6.53;5.10;;;0.80;99.90;;;;;;5156049;27;20440;-70
2021/03/15 00:35:44;;;;;;;7.90;5.33;;;0.80;99.90;;;;;;5155164;27;20536;-70
2021/03/15 00:38:11;;;;;;;5.47;4.87;;;0.80;99.90;;;;;;5155934;27;20468;-71
2021/03/15 00:40:37;;;;;;;5.27;4.47;;;0.80;99.90;;;;;;5155788;27;20446;-71
2021/03/15 00:43:04;;;;;;;7.70;4.77;;;0.80;99.90;;;;;;5154904;27;20440;-70
2021/03/15 00:45:34;;;;;;;4.67;4.20;;;0.80;99.90;;;;;;5155529;27;20539;-71
2021/03/15 00:48:01;;;;;;;8.30;4.40;;;0.80;99.90;;;;;;5155888;27;20428;-71
2021/03/15 00:50:30;;;;;;;6.03;4.30;;;0.90;99.90;;;;;;5155220;27;20469;-70
2021/03/15 00:52:58;;;;;;;5.70;4.60;;;0.80;99.90;;;;;;5155223;27;20990;-71
2021/03/15 00:55:25;;;;;;;6.57;5.10;;;0.80;99.90;;;;;;5155608;27;20782;-71
2021/03/15 00:57:52;;;;;;;5.50;5.00;;;0.80;99.90;;;;;;5154103;27;20500;-72
2021/03/15 01:00:24;;;;;;;4.50;4.10;;;0.80;99.90;;;;;;5155095;27;20468;-70
2021/03/15 01:02:51;;;;;;;6.47;5.23;;;0.70;99.90;;;;;;5155640;27;20430;-70
2021/03/15 01:05:23;;;;;;;5.87;4.73;;;0.70;99.90;;;;;;5154648;27;20437;-70
2021/03/15 01:07:50;;;;;;;8.30;4.63;;;0.70;99.90;;;;;;5155483;27;20430;-71
2021/03/15 01:10:21;;;;;;;8.37;4.20;;;0.70;99.90;;;;;;5155248;27;20533;-71
2021/03/15 01:12:48;;;;;;;6.43;4.87;;;0.70;99.90;;;;;;5155066;27;20958;-70
2021/03/15 01:15:15;;;;;;;8.90;5.63;;;0.70;99.90;;;;;;5154233;27;20428;-71
2021/03/15 01:17:42;;;;;;;6.87;5.60;;;0.70;99.90;;;;;;5155341;27;20492;-70
2021/03/15 01:20:10;;;;;;;4.83;4.30;;;0.70;99.90;;;;;;5155084;27;20455;-71
2021/03/15 01:22:37;;;;;;;5.50;4.53;;;0.70;99.90;;;;;;5155355;27;20802;-70
2021/03/15 01:25:05;;;;;;;9.23;5.20;;;0.70;99.90;;;;;;5155711;27;20442;-71
2021/03/15 01:27:33;;;;;;;5.93;3.60;;;0.70;99.90;;;;;;5155387;27;20509;-70
2021/03/15 01:30:00;;;;;;;4.20;3.80;;;0.70;99.90;;;;;;5154117;27;20460;-71
2021/03/15 01:32:26;;;;;;;5.07;4.13;;;0.70;99.90;;;;;;5154959;27;20430;-70
2021/03/15 01:34:53;;;;;;;4.63;3.83;;;0.70;99.90;;;;;;5155118;27;20441;-70
2021/03/15 01:37:20;;;;;;;5.30;4.67;;;0.70;99.90;;;;;;5154754;27;20533;-71
2021/03/15 01:39:46;;;;;;;5.03;4.53;;;0.70;99.90;;;;;;5154030;27;20539;-71
2021/03/15 01:42:13;;;;;;;4.80;4.23;;;0.70;99.90;;;;;;5154649;27;20434;-71
2021/03/15 01:44:41;;;;;;;3.70;3.37;;;0.70;99.90;;;;;;5154814;27;20832;-70
2021/03/15 01:47:10;;;;;;;6.40;4.53;;;0.70;99.90;;;;;;5153778;27;20438;-71
2021/03/15 01:49:37;;;;;;;4.93;4.07;;;0.70;99.90;;;;;;5154638;27;20473;-70
2021/03/15 01:52:04;;;;;;;4.27;3.63;;;0.70;99.90;;;;;;5154879;27;20451;-71
2021/03/15 01:54:31;;;;;;;3.57;3.27;;;0.70;99.90;;;;;;5153958;27;20545;-71
2021/03/15 01:56:58;;;;;;;6.40;3.83;;;0.70;99.90;;;;;;5154493;27;20425;-70
2021/03/15 01:59:25;;;;;;;7.47;3.70;;;0.70;99.90;;;;;;5154659;27;20488;-70
2021/03/15 02:01:54;;;;;;;4.40;4.00;;;0.70;99.90;;;;;;5154470;27;20474;-70
2021/03/15 02:04:22;;;;;;;4.23;3.83;;;0.70;99.90;;;;;;5154411;27;20426;-70
2021/03/15 02:06:50;;;;;;;4.47;3.17;;;0.60;99.90;;;;;;5154613;27;21079;-70
2021/03/15 02:09:17;;;;;;;6.27;3.30;;;0.70;99.90;;;;;;5154250;27;20458;-70
2021/03/15 02:11:53;;;;;;;3.63;3.33;;;0.60;99.90;;;;;;5154351;27;20922;-71
2021/03/15 02:14:31;;;;;;;4.30;3.90;;;0.60;99.90;;;;;;5153885;27;20450;-71
2021/03/15 02:17:04;;;;;;;2.70;2.50;;;0.60;99.90;;;;;;5153915;27;20430;-71
2021/03/15 02:20:04;;;;;;;5.97;3.40;;;0.60;99.90;;;;;;5153864;27;20478;-70
2021/03/15 02:22:54;;;;;;;4.10;3.00;;;0.60;99.90;;;;;;5154040;27;20438;-71
2021/03/15 02:26:10;;;;;;;3.70;3.40;;;0.60;99.90;;;;;;5140975;27;20506;-71
2021/03/15 02:29:11;;;;;;;3.50;3.20;;;0.60;99.90;;;;;;5153282;27;20445;-70
2021/03/15 02:32:04;;;;;;;6.50;4.00;;;0.70;99.90;;;;;;5121037;27;20463;-70
2021/03/15 02:35:06;;;;;;;3.10;2.80;;;0.60;99.90;;;;;;5152686;27;20450;-71
2021/03/15 02:37:36;;;;;;;3.33;2.90;;;0.60;99.90;;;;;;5153598;27;20434;-70
2021/03/15 02:40:09;;;;;;;5.40;3.00;;;0.60;99.90;;;;;;5153534;27;20460;-70
2021/03/15 02:42:37;;;;;;;4.67;3.50;;;0.50;99.90;;;;;;5153953;27;20794;-70
2021/03/15 02:45:07;;;;;;;10.97;3.77;;;0.50;99.90;;;;;;5153398;27;20422;-70
2021/03/15 02:47:37;;;;;;;4.00;3.27;;;0.50;99.90;;;;;;5153311;27;20433;-70
2021/03/15 02:50:08;;;;;;;4.83;3.90;;;0.50;99.90;;;;;;5153809;27;20458;-70
2021/03/15 02:52:37;;;;;;;6.57;3.67;;;0.60;99.90;;;;;;5153267;27;20444;-71
2021/03/15 02:55:06;;;;;;;21.60;4.97;;;0.60;99.90;;;;;;5132295;27;20776;-70
2021/03/15 02:57:36;;;;;;;32.77;5.07;;;0.50;99.90;;;;;;5132291;27;20419;-70
2021/03/15 03:00:06;;;;;;;4.23;3.03;;;0.50;99.90;;;;;;5148868;27;20455;-70
2021/03/15 03:02:35;;;;;;;4.60;3.20;;;0.50;99.90;;;;;;5152669;27;20434;-70
2021/03/15 03:05:06;;;;;;;5.20;2.93;;;0.50;99.90;;;;;;5153215;27;20490;-71
2021/03/15 03:07:37;;;;;;;4.80;3.00;;;0.50;99.90;;;;;;5153173;27;20431;-70
2021/03/15 03:10:05;;;;;;;2.90;2.50;;;0.50;99.90;;;;;;5152713;27;20450;-70
2021/03/15 03:12:34;;;;;;;6.13;3.50;;;0.60;99.90;;;;;;5152866;27;20525;-70
2021/03/15 03:15:05;;;;;;;4.63;4.00;;;0.60;99.90;;;;;;5153105;27;20425;-71
2021/03/15 03:17:37;;;;;;;4.17;3.77;;;0.60;99.90;;;;;;5153371;27;20810;-71
2021/03/15 03:20:06;;;;;;;4.40;3.97;;;0.60;99.90;;;;;;5152813;27;20494;-71
2021/03/15 03:22:34;;;;;;;3.47;3.17;;;0.60;99.90;;;;;;5153116;27;20422;-71
2021/03/15 03:25:02;;;;;;;5.17;4.00;;;0.60;99.90;;;;;;5152674;27;20479;-71
2021/03/15 03:27:28;;;;;;;4.13;3.73;;;0.60;99.90;;;;;;5152901;27;21177;-71
2021/03/15 03:29:56;;;;;;;4.70;3.60;;;0.60;99.90;;;;;;5151758;27;20454;-70
2021/03/15 03:32:23;;;;;;;5.73;4.03;;;0.60;99.90;;;;;;5152522;27;20452;-71
2021/03/15 03:34:51;;;;;;;16.27;4.03;;;0.60;99.90;;;;;;5152748;27;20836;-71
2021/03/15 03:37:18;;;;;;;5.77;4.40;;;0.60;99.90;;;;;;5151410;27;20792;-70
2021/03/15 03:39:45;;;;;;;17.23;5.23;;;0.60;99.90;;;;;;5152214;27;20507;-71
2021/03/15 03:42:13;;;;;;;8.03;4.43;;;0.70;99.90;;;;;;5152682;27;20436;-70
2021/03/15 03:44:39;;;;;;;7.20;4.33;;;0.70;99.90;;;;;;5152683;27;20442;-71
2021/03/15 03:47:06;;;;;;;5.93;4.03;;;0.70;99.90;;;;;;5152669;27;20446;-71
2021/03/15 03:49:33;;;;;;;7.60;3.97;;;0.70;99.90;;;;;;5152512;27;20442;-70
2021/03/15 03:52:02;;;;;;;8.60;4.30;;;0.70;99.90;;;;;;5151514;27;20531;-71
2021/03/15 03:54:31;;;;;;;19.43;4.77;;;0.70;99.90;;;;;;5152447;27;20466;-71
2021/03/15 03:57:02;;;;;;;27.90;5.47;;;0.70;99.90;;;;;;5151884;27;20482;-71
2021/03/15 03:59:33;;;;;;;8.57;5.03;;;0.70;99.90;;;;;;5151439;27;20530;-70
2021/03/15 04:02:02;;;;;;;10.90;4.60;;;0.70;99.90;;;;;;5152497;27;20438;-70
2021/03/15 04:04:37;;;;;;;7.60;3.77;;;0.70;99.90;;;;;;5152416;27;21010;-71
2021/03/15 04:07:08;;;;;;;6.27;4.53;;;0.70;99.90;;;;;;5151846;27;20490;-70
2021/03/15 04:09:37;;;;;;;9.60;4.57;;;0.70;99.90;;;;;;5152566;27;20480;-70
2021/03/15 04:12:08;;;;;;;6.70;4.07;;;0.70;99.90;;;;;;5151828;27;20419;-71
2021/03/15 04:14:39;;;;;;;6.03;4.50;;;0.70;99.90;;;;;;5152245;27;20418;-71
2021/03/15 04:17:09;;;;;;;5.30;4.13;;;0.80;99.90;;;;;;5151682;27;20504;-70
2021/03/15 04:19:40;;;;;;;5.17;4.37;;;0.90;99.90;;;;;;5152092;27;20478;-70
2021/03/15 04:22:09;;;;;;;5.83;4.60;;;0.80;99.90;;;;;;5151781;27;20960;-71
2021/03/15 04:24:39;;;;;;;10.60;5.17;;;0.90;99.90;;;;;;5152364;27;20454;-70
2021/03/15 04:27:08;;;;;;;15.13;5.10;;;0.90;99.90;;;;;;5152183;27;20444;-71
2021/03/15 04:29:36;;;;;;;6.23;3.53;;;0.90;99.90;;;;;;5151964;27;20489;-70
2021/03/15 04:32:05;;;;;;;9.30;4.87;;;0.90;99.90;;;;;;5151708;27;20489;-71
2021/03/15 04:34:33;;;;;;;6.80;4.40;;;0.90;99.90;;;;;;5151171;27;20490;-71
2021/03/15 04:37:01;;;;;;;5.40;4.40;;;0.90;99.90;;;;;;5151968;27;20516;-71
2021/03/15 04:39:30;;;;;;;7.37;4.83;;;0.90;99.90;;;;;;5151881;27;20473;-71
2021/03/15 04:41:58;;;;;;;7.30;4.20;;;0.90;99.90;;;;;;5151038;27;20541;-70
2021/03/15 04:44:26;;;;;;;4.33;3.83;;;1.00;99.90;;;;;;5152078;27;20436;-72
2021/03/15 04:46:53;;;;;;;5.37;3.70;;;1.00;99.90;;;;;;5151926;27;20982;-71
2021/03/15 04:49:20;;;;;;;5.20;3.80;;;0.90;99.90;;;;;;5153219;27;20927;-70
2021/03/15 04:51:47;;;;;;;4.57;3.50;;;0.90;99.90;;;;;;5155706;27;20418;-70
2021/03/15 04:54:14;;;;;;;7.90;5.23;;;0.90;99.90;;;;;;5155854;27;20517;-71
2021/03/15 04:56:42;;;;;;;6.50;4.83;;;0.80;99.90;;;;;;5155792;27;20424;-71
2021/03/15 04:59:10;;;;;;;4.97;4.37;;;0.90;99.90;;;;;;5155783;27;20506;-70
2021/03/15 05:01:42;;;;;;;11.60;4.70;;;0.90;99.90;;;;;;5155495;27;20422;-71
2021/03/15 05:04:11;;;;;;;9.77;5.00;;;0.90;99.90;;;;;;5155435;27;20426;-71
2021/03/15 05:06:39;;;;;;;6.43;4.27;;;0.90;99.90;;;;;;5154741;27;20434;-70
2021/03/15 05:09:08;;;;;;;8.00;4.40;;;0.90;99.90;;;;;;5155627;27;20538;-71
2021/03/15 05:11:37;;;;;;;4.37;3.97;;;0.90;99.90;;;;;;5155056;27;20452;-71
2021/03/15 05:14:05;;;;;;;7.50;3.53;;;0.80;99.90;;;;;;5155522;27;20528;-71
2021/03/15 05:16:36;;;;;;;5.07;3.87;;;0.80;99.90;;;;;;5155042;27;20431;-71
2021/03/15 05:19:06;;;;;;;10.23;4.60;;;0.80;99.90;;;;;;5155035;27;20540;-70
2021/03/15 05:21:34;;;;;;;5.10;2.50;;;0.80;99.90;;;;;;5155793;27;20509;-71
2021/03/15 05:24:03;;;;;;;10.87;4.33;;;0.80;99.90;;;;;;5149094;27;20424;-69
2021/03/15 05:26:31;;;;;;;5.90;3.70;;;0.80;99.90;;;;;;5134787;27;20506;-69
2021/03/15 05:29:00;;;;;;;5.50;4.20;;;0.80;99.90;;;;;;5134256;27;20544;-68
2021/03/15 05:31:29;;;;;;;5.63;4.30;;;0.70;99.90;;;;;;5134542;27;20479;-69
2021/03/15 05:33:57;;;;;;;3.87;3.47;;;0.80;99.90;;;;;;5141044;27;20446;-69
2021/03/15 05:36:26;;;;;;;3.37;2.77;;;0.70;99.90;;;;;;5155160;27;20420;-68
2021/03/15 05:38:56;;;;;;;5.70;3.40;;;0.70;99.90;;;;;;5154839;27;20466;-73
2021/03/15 05:41:34;;;;;;;3.70;3.10;;;0.80;99.90;;;;;;5154815;27;20430;-73
2021/03/15 05:44:20;;;;;;;4.20;2.97;;;0.80;99.90;;;;;;5154939;27;20418;-72
2021/03/15 05:47:07;;;;;;;4.90;3.13;;;0.70;99.90;;;;;;5155010;27;20931;-72
2021/03/15 05:50:20;;;;;;;3.17;2.77;;;0.70;99.90;;;;;;5154593;27;20954;-73
2021/03/15 05:53:08;;;;;;;2.87;2.67;;;0.70;99.90;;;;;;5154676;27;20978;-73
2021/03/15 05:55:58;;;;;;;3.50;3.20;;;0.70;99.90;;;;;;5154815;27;20423;-72
2021/03/15 05:58:58;;;;;;;3.40;3.10;;;0.70;99.90;;;;;;5154575;27;20886;-71
2021/03/15 06:01:52;;;;;;;3.57;3.27;;;0.70;99.90;;;;;;5132288;27;20456;-72
2021/03/15 06:04:48;;;;;;;5.90;3.03;;;0.70;99.90;;;;;;5153483;27;20476;-72
2021/03/15 06:07:18;;;;;;;3.80;3.50;;;0.70;99.90;;;;;;5152630;27;20426;-73
2021/03/15 06:10:05;;;;;;;2.50;2.30;;;0.70;99.90;;;;;;5148521;27;20443;-70
2021/03/15 06:12:38;;;;;;;3.17;2.87;;;0.70;99.90;;;;;;5133047;27;20438;-69
2021/03/15 06:15:06;;;;;;;2.97;2.67;;;0.80;99.90;;;;;;5148569;27;20964;-69
2021/03/15 06:17:34;;;;;;;2.67;2.40;;;0.90;99.90;;;;;;5153141;27;20434;-69
2021/03/15 06:20:04;;;;;;;2.30;2.03;;;0.90;99.90;;;;;;5153366;27;20469;-69
2021/03/15 06:22:33;;;;;;;1.50;1.40;;;0.90;99.90;;;;;;5153906;27;20414;-68
2021/03/15 06:25:00;;;;;;;1.93;1.80;;;0.90;99.90;;;;;;5153713;27;20436;-69
2021/03/15 06:27:29;;;;;;;1.60;1.50;;;0.80;99.90;;;;;;5136725;27;20439;-69
2021/03/15 06:29:57;;;;;;;1.97;1.70;;;0.90;99.90;;;;;;5133280;27;20452;-69
2021/03/15 06:32:27;;;;;;;2.60;2.40;;;0.80;99.90;;;;;;5132940;27;20532;-69
2021/03/15 06:34:56;;;;;;;2.20;2.00;;;0.80;99.90;;;;;;5153536;27;20422;-70
2021/03/15 06:37:24;;;;;;;2.17;2.00;;;0.80;99.90;;;;;;5153831;27;20438;-69
2021/03/15 06:39:51;;;;;;;2.10;1.90;;;0.80;99.90;;;;;;5152515;27;20992;-69
2021/03/15 06:42:20;;;;;;;2.37;1.90;;;0.80;99.90;;;;;;5153203;27;20504;-71
2021/03/15 06:44:48;;;;;;;2.50;1.90;;;0.80;99.90;;;;;;5153517;27;20426;-69
2021/03/15 06:47:16;;;;;;;2.77;1.73;;;0.70;99.90;;;;;;5153224;27;20503;-68
2021/03/15 06:49:43;;;;;;;3.20;1.90;;;0.80;99.90;;;;;;5153344;27;20458;-69
2021/03/15 06:52:10;;;;;;;4.60;2.50;;;0.70;99.90;;;;;;5152783;27;20498;-66
2021/03/15 06:54:37;;;;;;;7.93;1.83;;;0.60;99.90;;;;;;5153341;27;20435;-64
2021/03/15 06:57:21;;;;;;;28.40;4.77;;;0.60;99.90;;;;;;5153012;27;20458;-67
2021/03/15 06:59:53;;;;;;;28.90;4.27;;;0.60;99.90;;;;;;5152354;27;20522;-67
2021/03/15 07:02:28;;;;;;;2.90;2.30;;;0.50;99.90;;;;;;5153066;27;20438;-67
2021/03/15 07:05:06;;;;;;;2.33;2.03;;;0.50;99.90;;;;;;5153182;27;20929;-67
2021/03/15 07:07:33;;;;;;;1.97;1.73;;;0.50;99.90;;;;;;5153216;27;20437;-68
2021/03/15 07:10:00;;;;;;;1.60;1.50;;;0.50;99.90;;;;;;5153232;27;20455;-68
2021/03/15 07:12:27;;;;;;;2.10;1.90;;;0.50;99.90;;;;;;5151585;27;20423;-68
2021/03/15 07:15:06;;;;;;;2.23;2.07;;;0.50;99.90;;;;;;5153134;27;20886;-69
2021/03/15 07:17:33;;;;;;;2.23;1.73;;;0.50;99.90;;;;;;5153170;27;20437;-69
2021/03/15 07:19:59;;;;;;;2.20;1.70;;;0.50;99.90;;;;;;5152963;27;20480;-68
2021/03/15 07:22:28;;;;;;;1.57;1.47;;;0.50;99.90;;;;;;5152787;27;20418;-68
2021/03/15 07:25:15;;;;;;;1.37;1.27;;;0.60;99.90;;;;;;5152970;27;20426;-68
2021/03/15 07:27:43;;;;;;;0.87;0.80;;;0.60;99.90;;;;;;5152076;27;20434;-72
2021/03/15 07:30:31;;;;;;;1.37;1.27;;;0.60;99.90;;;;;;5152078;27;20466;-68
2021/03/15 07:33:00;;;;;;;1.83;1.40;;;0.60;99.90;;;;;;5151871;27;20486;-66
2021/03/15 07:35:29;;;;;;;1.77;1.40;;;0.50;99.90;;;;;;5152650;27;20425;-68
2021/03/15 07:37:56;;;;;;;1.20;1.10;;;0.50;99.90;;;;;;5150744;27;20434;-68
2021/03/15 07:40:38;;;;;;;1.23;1.13;;;0.50;99.90;;;;;;5152464;27;21012;-71
2021/03/15 07:43:06;;;;;;;1.50;1.40;;;0.50;99.90;;;;;;5151511;27;20444;-71
2021/03/15 07:45:36;;;;;;;1.87;1.40;;;0.50;99.90;;;;;;5151752;27;20454;-67
2021/03/15 07:48:17;;;;;;;2.27;1.60;;;0.50;99.90;;;;;;5152957;27;20471;-68
2021/03/15 07:50:55;;;;;;;1.50;1.40;;;0.60;99.90;;;;;;5152522;27;20438;-68
2021/03/15 07:53:35;;;;;;;1.50;1.37;;;0.60;99.90;;;;;;5152575;27;20444;-69
2021/03/15 07:56:02;;;;;;;1.57;1.47;;;0.60;99.90;;;;;;5152688;27;20425;-68
2021/03/15 07:58:32;;;;;;;1.47;1.30;;;0.60;99.90;;;;;;5152035;27;20752;-67
2021/03/15 08:01:00;;;;;;;2.53;1.40;;;0.70;99.90;;;;;;5152343;27;20482;-68
2021/03/15 08:03:27;;;;;;;1.27;1.17;;;0.70;99.90;;;;;;5152460;27;20419;-68
2021/03/15 08:05:56;;;;;;;1.40;1.30;;;0.70;99.90;;;;;;5151601;27;21063;-69
2021/03/15 08:08:23;;;;;;;2.80;1.50;;;0.70;99.90;;;;;;5152180;27;20434;-68
2021/03/15 08:10:51;;;;;;;1.03;0.90;;;0.70;99.90;;;;;;5152225;27;20850;-68
2021/03/15 08:13:20;;;;;;;1.63;1.40;;;0.80;99.90;;;;;;5152193;27;20434;-68
2021/03/15 08:15:49;;;;;;;1.83;1.47;;;0.80;99.90;;;;;;5152180;27;20432;-68
2021/03/15 08:18:21;;;;;;;1.93;1.83;;;0.80;99.90;;;;;;5152319;27;20930;-68
2021/03/15 08:20:50;;;;;;;3.47;3.07;;;0.80;99.90;;;;;;5151817;27;20470;-69
2021/03/15 08:23:21;;;;;;;2.93;2.73;;;0.80;99.90;;;;;;5152752;27;20434;-69
2021/03/15 08:25:52;;;;;;;1.37;1.27;;;0.80;99.90;;;;;;5156600;27;20430;-68
2021/03/15 08:28:21;;;;;;;1.63;1.53;;;0.80;99.90;;;;;;5156106;27;20922;-68
2021/03/15 08:30:55;;;;;;;1.43;1.13;;;0.80;99.90;;;;;;5155278;27;20510;-68
2021/03/15 08:33:23;;;;;;;1.60;1.20;;;0.80;99.90;;;;;;5155575;27;21003;-68
2021/03/15 08:35:54;;;;;;;1.80;1.40;;;0.90;99.90;;;;;;5156436;27;20434;-68
2021/03/15 08:38:30;;;;;;;1.23;1.10;;;0.80;99.90;;;;;;5155590;27;20466;-68
2021/03/15 08:40:59;;;;;;;4.80;4.30;;;0.90;99.90;;;;;;5155298;27;20437;-69
2021/03/15 08:43:40;;;;;;;1.43;1.33;;;0.90;99.90;;;;;;5155677;27;20561;-69
2021/03/15 08:46:09;;;;;;;1.27;1.17;;;1.00;99.90;;;;;;5155894;27;20952;-69
2021/03/15 08:48:57;;;;;;;1.10;1.00;;;1.00;99.90;;;;;;5155051;27;20442;-69
2021/03/15 08:51:48;;;;;;;1.20;1.00;;;1.10;99.90;;;;;;5155536;27;20445;-68
2021/03/15 08:54:19;;;;;;;1.40;1.30;;;1.20;99.90;;;;;;5155154;27;20445;-69
2021/03/15 08:56:48;;;;;;;1.23;1.13;;;1.20;99.90;;;;;;5155926;27;20474;-67
2021/03/15 08:59:15;;;;;;;0.90;0.80;;;1.20;99.90;;;;;;5154593;27;20468;-67
2021/03/15 09:01:58;;;;;;;1.20;1.10;;;1.20;99.90;;;;;;5155483;27;20422;-67
2021/03/15 09:04:34;;;;;;;1.10;1.00;;;1.10;99.90;;;;;;5155163;27;20791;-68
2021/03/15 09:07:02;;;;;;;2.00;0.87;;;1.10;99.90;;;;;;5155348;27;20433;-68
2021/03/15 09:09:30;;;;;;;0.90;0.70;;;1.00;99.90;;;;;;5155345;27;20442;-70
2021/03/15 09:11:58;;;;;;;1.30;1.20;;;0.70;99.90;;;;;;5155877;27;20427;-70
2021/03/15 09:14:36;;;;;;;1.80;1.17;;;0.70;99.90;;;;;;5155838;27;20787;-71
2021/03/15 09:17:31;;;;;;;1.20;1.10;;;0.60;99.90;;;;;;5155692;27;20478;-68
2021/03/15 09:20:15;;;;;;;0.93;0.90;;;0.70;99.90;;;;;;5155001;27;20470;-69
2021/03/15 09:22:41;;;;;;;0.83;0.80;;;0.70;99.90;;;;;;5155298;27;20470;-68
2021/03/15 09:25:21;;;;;;;1.30;1.03;;;0.70;99.90;;;;;;5155403;27;20418;-68
2021/03/15 09:27:52;;;;;;;1.00;0.90;;;0.80;99.90;;;;;;5155099;27;20442;-67
2021/03/15 09:30:21;;;;;;;1.70;1.60;;;0.80;99.90;;;;;;5155036;27;20438;-66
2021/03/15 09:32:49;;;;;;;1.20;1.10;;;0.90;99.90;;;;;;5153605;27;20453;-69
2021/03/15 09:35:27;;;;;;;1.27;1.17;;;1.00;99.90;;;;;;5154423;27;20529;-68
2021/03/15 09:37:59;;;;;;;1.03;0.93;;;1.10;99.90;;;;;;5155139;27;20559;-68
2021/03/15 09:40:28;;;;;;;1.23;0.97;;;1.10;99.90;;;;;;5154767;27;20484;-68
2021/03/15 09:42:56;;;;;;;1.40;1.27;;;1.10;99.90;;;;;;5153647;27;20454;-67
2021/03/15 09:45:26;;;;;;;1.20;0.97;;;1.20;99.90;;;;;;5154596;27;20438;-66
2021/03/15 09:47:53;;;;;;;2.70;1.40;;;1.30;99.90;;;;;;5154854;27;20419;-68
2021/03/15 09:50:24;;;;;;;1.20;1.10;;;1.30;99.90;;;;;;5154671;27;20458;-68
2021/03/15 09:52:51;;;;;;;1.00;0.90;;;1.40;99.90;;;;;;5153776;27;20465;-67
2021/03/15 09:55:21;;;;;;;2.97;1.60;;;1.40;99.90;;;;;;5154957;27;20471;-68
2021/03/15 09:57:48;;;;;;;1.00;0.90;;;1.40;99.90;;;;;;5154103;27;20510;-68
2021/03/15 10:00:17;;;;;;;1.03;0.93;;;1.30;99.90;;;;;;5153437;27;20481;-66
2021/03/15 10:02:45;;;;;;;1.10;1.00;;;1.40;99.90;;;;;;5154381;27;20453;-67
2021/03/15 10:05:19;;;;;;;1.30;1.10;;;1.40;99.90;;;;;;5154411;27;20477;-67
2021/03/15 10:07:48;;;;;;;1.20;1.00;;;1.30;99.90;;;;;;5154475;27;20521;-67
2021/03/15 10:10:17;;;;;;;1.00;0.67;;;1.30;99.90;;;;;;5154267;27;20470;-68
2021/03/15 10:12:44;;;;;;;1.07;0.97;;;1.40;99.90;;;;;;5154483;27;20557;-68
2021/03/15 10:15:13;;;;;;;0.90;0.80;;;1.30;99.90;;;;;;5153812;27;20430;-68
2021/03/15 10:17:40;;;;;;;0.70;0.60;;;1.20;99.90;;;;;;5153862;27;20488;-68
2021/03/15 10:20:10;;;;;;;1.10;1.00;;;1.30;99.90;;;;;;5154145;27;21162;-68
2021/03/15 10:22:37;;;;;;;1.00;0.90;;;1.30;99.90;;;;;;5153973;27;20422;-68
2021/03/15 10:25:07;;;;;;;1.10;1.00;;;1.30;99.90;;;;;;5153923;27;20438;-68
2021/03/15 10:27:33;;;;;;;1.00;0.90;;;1.40;99.90;;;;;;5152939;27;20430;-67
2021/03/15 10:30:06;;;;;;;1.37;1.27;;;1.30;99.90;;;;;;5152898;27;20446;-68
2021/03/15 10:32:33;;;;;;;1.30;1.20;;;1.10;99.90;;;;;;5153810;27;20435;-66
2021/03/15 10:35:01;;;;;;;1.30;1.20;;;1.10;99.90;;;;;;5153082;27;20438;-67
2021/03/15 10:37:31;;;;;;;1.50;1.40;;;1.10;99.90;;;;;;5153646;27;20440;-68
2021/03/15 10:39:59;;;;;;;2.10;1.53;;;1.10;99.90;;;;;;5153591;27;20484;-68
2021/03/15 10:42:27;;;;;;;1.97;1.77;;;1.10;99.90;;;;;;5153758;27;20427;-66
2021/03/15 10:44:55;;;;;;;1.40;1.30;;;1.20;99.90;;;;;;5152842;27;20960;-68
2021/03/15 10:47:29;;;;;;;1.60;1.50;;;1.20;99.90;;;;;;5153881;27;20421;-68
2021/03/15 10:49:56;;;;;;;2.00;1.80;;;1.30;99.90;;;;;;5153392;27;20442;-68
2021/03/15 10:52:30;;;;;;;2.43;1.70;;;1.40;99.90;;;;;;5153667;27;20422;-68
2021/03/15 10:55:10;;;;;;;1.57;1.43;;;1.50;99.90;;;;;;5152868;27;20453;-68
2021/03/15 10:58:05;;;;;;;3.23;2.07;;;1.50;99.90;;;;;;5154009;27;20778;-68
2021/03/15 11:00:34;;;;;;;2.87;2.67;;;1.60;99.90;;;;;;5152695;27;20482;-67
2021/03/15 11:03:01;;;;;;;2.83;2.47;;;1.60;99.90;;;;;;5153221;27;20419;-68
2021/03/15 11:05:28;;;;;;;2.50;2.30;;;1.70;99.90;;;;;;5152710;27;20444;-68
2021/03/15 11:07:56;;;;;;;2.50;2.13;;;1.80;99.90;;;;;;5153283;27;20534;-68
2021/03/15 11:10:24;;;;;;;2.20;2.00;;;1.80;99.90;;;;;;5153284;27;20997;-69
2021/03/15 11:12:53;;;;;;;2.10;2.00;;;1.90;99.90;;;;;;5152948;27;20429;-68
2021/03/15 11:15:23;;;;;;;2.30;2.20;;;1.90;99.90;;;;;;5152796;27;20430;-68
2021/03/15 11:18:13;;;;;;;3.20;2.90;;;1.90;99.90;;;;;;5152548;27;20438;-68
2021/03/15 11:20:48;;;;;;;2.50;2.33;;;2.00;99.90;;;;;;5153008;27;20465;-68
2021/03/15 11:23:30;;;;;;;2.40;2.30;;;2.10;99.90;;;;;;5152656;27;20934;-68
2021/03/15 11:26:05;;;;;;;2.73;2.50;;;2.20;99.90;;;;;;5153114;27;20502;-70
2021/03/15 11:28:33;;;;;;;4.90;2.90;;;2.20;99.90;;;;;;5152319;27;20975;-69
2021/03/15 11:31:01;;;;;;;2.63;2.43;;;2.30;99.90;;;;;;5152533;27;20973;-70
2021/03/15 11:33:29;;;;;;;2.47;2.27;;;2.40;99.90;;;;;;5152674;27;20782;-68
2021/03/15 11:35:59;;;;;;;2.47;2.27;;;2.50;99.90;;;;;;5152637;27;20530;-68
2021/03/15 11:38:27;;;;;;;3.33;2.60;;;2.50;99.90;;;;;;5152603;27;20442;-68
2021/03/15 11:40:56;;;;;;;2.73;2.53;;;2.50;99.90;;;;;;5152632;27;20461;-68
2021/03/15 11:43:23;;;;;;;1.97;1.87;;;2.50;99.90;;;;;;5152416;27;20422;-69
2021/03/15 11:45:49;;;;;;;2.67;2.47;;;2.40;99.90;;;;;;5152537;27;20456;-69
2021/03/15 11:48:17;;;;;;;2.73;2.53;;;2.40;99.90;;;;;;5151745;27;20434;-69
2021/03/15 11:50:44;;;;;;;2.53;2.33;;;2.30;99.90;;;;;;5152196;27;20458;-69
2021/03/15 11:53:11;;;;;;;2.73;2.20;;;2.40;99.90;;;;;;5151740;27;20437;-69
2021/03/15 11:55:38;;;;;;;2.50;2.30;;;2.40;99.90;;;;;;5131926;28;20418;-69
2021/03/15 11:58:05;;;;;;;2.60;2.40;;;2.40;99.90;;;;;;5131626;27;20780;-69
2021/03/15 12:00:32;;;;;;;2.73;2.37;;;2.40;99.90;;;;;;5131330;27;20475;-69
2021/03/15 12:03:01;;;;;;;3.07;2.80;;;2.40;99.90;;;;;;5131802;28;20943;-69
2021/03/15 12:05:29;;;;;;;2.90;2.70;;;2.50;99.90;;;;;;5143940;27;20482;-69
2021/03/15 12:07:58;;;;;;;18.03;9.30;;;2.50;99.90;;;;;;5152437;27;20442;-70
2021/03/15 12:10:25;;;;;;;4.47;3.43;;;2.50;99.90;;;;;;5151859;27;20454;-70
2021/03/15 12:12:52;;;;;;;2.40;2.20;;;2.50;99.90;;;;;;5152403;27;20425;-70
2021/03/15 12:15:18;;;;;;;2.50;2.30;;;2.50;99.90;;;;;;5152197;27;20922;-69
2021/03/15 12:17:47;;;;;;;2.57;2.37;;;2.50;99.90;;;;;;5152528;27;20518;-69
2021/03/15 12:20:14;;;;;;;2.93;2.73;;;2.50;99.90;;;;;;5152272;27;20470;-70
2021/03/15 12:22:41;;;;;;;3.20;3.00;;;2.60;99.90;;;;;;5151843;27;20520;-70
2021/03/15 12:25:09;;;;;;;2.50;2.30;;;2.70;99.90;;;;;;5151763;27;20949;-70
2021/03/15 12:27:36;;;;;;;2.93;2.73;;;2.80;99.90;;;;;;5152027;27;20422;-72
2021/03/15 12:30:04;;;;;;;2.30;2.20;;;2.90;99.90;;;;;;5151631;27;20450;-70
2021/03/15 12:32:30;;;;;;;1.90;1.80;;;3.00;99.90;;;;;;5151919;27;20430;-71
2021/03/15 12:34:57;;;;;;;1.87;1.70;;;3.10;99.90;;;;;;5152226;27;20502;-70
2021/03/15 12:37:24;;;;;;;1.47;1.37;;;3.10;99.90;;;;;;5152549;27;20418;-70
2021/03/15 12:39:51;;;;;;;2.50;2.23;;;3.20;99.90;;;;;;5152498;27;20505;-70
2021/03/15 12:42:19;;;;;;;2.13;1.80;;;3.30;99.90;;;;;;5150856;27;20445;-71
2021/03/15 12:44:46;;;;;;;1.60;1.50;;;3.40;99.90;;;;;;5152168;27;20478;-71
2021/03/15 12:47:13;;;;;;;1.70;1.60;;;3.60;99.90;;;;;;5151697;27;20437;-70
2021/03/15 12:49:40;;;;;;;2.17;1.97;;;3.70;99.90;;;;;;5152032;27;21026;-70
2021/03/15 12:52:08;;;;;;;2.70;1.57;;;3.60;99.90;;;;;;5151850;27;20418;-70
2021/03/15 12:54:35;;;;;;;1.40;1.23;;;3.70;99.90;;;;;;5152226;27;20411;-70
2021/03/15 12:57:03;;;;;;;2.60;2.00;;;3.80;99.90;;;;;;5151242;27;20938;-70
2021/03/15 12:59:29;;;;;;;1.40;1.20;;;3.90;99.90;;;;;;5152305;27;20468;-70
2021/03/15 13:01:59;;;;;;;1.77;1.50;;;3.80;99.90;;;;;;5152011;27;20505;-70
2021/03/15 13:04:26;;;;;;;1.30;1.20;;;3.70;99.90;;;;;;5151256;27;20454;-70
2021/03/15 13:06:52;;;;;;;1.20;1.10;;;3.70;99.90;;;;;;5151731;27;20445;-71
2021/03/15 13:09:19;;;;;;;1.37;1.27;;;3.60;99.90;;;;;;5151642;27;20442;-70
2021/03/15 13:11:46;;;;;;;1.20;1.10;;;3.50;99.90;;;;;;5154566;27;20422;-69
2021/03/15 13:14:14;;;;;;;1.57;1.20;;;3.40;99.90;;;;;;5155810;27;20422;-69